Auburn, Massachusetts
Current Conditions -  °F | °C
As of 9:54 PM on Wednesday 22 Oct 2014 (Local Time) from KORH Reporting Station
Moderate Rain Moderate Rain  
Wind Chill: 37°   Ceiling: 400
Heat Index: 45°   Visibility: 3mi
Dew Point: 44°   Wind: 21mph
Humidity: 97%   Direction: 30°NNE
Pressure: 29.81"   Gusts: 38mph
Location:  42.18°N, 71.85°W
Report Text: KORH 230154Z AUTO 03018G33KT 3SM RA BR OVC004 07/07 A2981 RMK AO2 PK WND 03040/0140 SFC VIS 3 LTG DSNT S AND SW CIG 003V008 SLP099 P0002 T00720067
Loading
Personal Weather Stations






























Interactive Weather Map
Tropical Storm Tracking
New forecast layout! Learn more

10-Day Weather Forecast

Advertisements
Track Severe Weather on mobile